KTBR/TBR METAR and TAF weather

Enter ICAO airport designator
Station Type Date Time Source
KTBR METAR 2019/12/06 13:55 UTC NOAA

KTBR 061355Z AUTO 00000KT 10SM BKN044 08/06 A3024 RMK AO2 T00750057


Station Type Date Time Source
KTBR Decoded METAR 2019/12/06 13:55 UTC NOAA

Statesboro, Statesboro-Bulloch County Airport, GA, United States (KTBR) 32-28-59N 081-44-14W
Dec 06, 2019 - 08:55 AM EST / 2019.12.06 1355 UTC
Wind: Calm:0
Visibility: 10 mile(s):0
Sky conditions: mostly cloudy
Temperature: 45.5 F (7.5 C)
Dew Point: 42.3 F (5.7 C)
Relative Humidity: 88%
Pressure (altimeter): 30.24 in. Hg (1024 hPa)
ob: KTBR 061355Z AUTO 00000KT 10SM BKN044 08/06 A3024 RMK AO2 T00750057
cycle: 14

Station Type Date Time Source
KTBR TAF UTC NOAA

Error!

Example: see airport list